sensor_id;sensor_type;location;lat;lon;timestamp;pressure;altitude;pressure_sealevel;temperature;humidity
62164;BME280;48149;51.132;7.178;2022-12-20T00:01:12;98745.00;;;18.24;69.71
62164;BME280;48149;51.132;7.178;2022-12-20T00:03:38;98755.50;;;18.66;64.43
62164;BME280;48149;51.132;7.178;2022-12-20T00:06:06;98756.38;;;19.11;64.20
62164;BME280;48149;51.132;7.178;2022-12-20T00:08:31;98753.03;;;18.49;66.79
62164;BME280;48149;51.132;7.178;2022-12-20T00:10:59;98754.56;;;18.35;66.66
62164;BME280;48149;51.132;7.178;2022-12-20T00:13:25;98747.31;;;18.92;63.91
62164;BME280;48149;51.132;7.178;2022-12-20T00:15:50;98751.91;;;18.25;67.17
62164;BME280;48149;51.132;7.178;2022-12-20T00:20:59;98739.84;;;18.64;64.94
62164;BME280;48149;51.132;7.178;2022-12-20T00:23:26;98733.81;;;19.34;61.74
62164;BME280;48149;51.132;7.178;2022-12-20T00:25:51;98723.97;;;19.55;63.15
62164;BME280;48149;51.132;7.178;2022-12-20T00:28:17;98726.91;;;19.23;62.48
62164;BME280;48149;51.132;7.178;2022-12-20T00:30:42;98716.38;;;20.12;56.59
62164;BME280;48149;51.132;7.178;2022-12-20T00:33:07;98716.84;;;20.35;56.46
62164;BME280;48149;51.132;7.178;2022-12-20T00:35:34;98715.25;;;20.34;57.44
62164;BME280;48149;51.132;7.178;2022-12-20T00:38:00;98697.44;;;19.14;62.00
62164;BME280;48149;51.132;7.178;2022-12-20T00:40:25;98693.78;;;20.20;58.86
62164;BME280;48149;51.132;7.178;2022-12-20T00:42:50;98687.44;;;20.60;56.69
62164;BME280;48149;51.132;7.178;2022-12-20T00:45:16;98684.00;;;20.00;58.95
62164;BME280;48149;51.132;7.178;2022-12-20T00:47:44;98684.72;;;19.47;60.87
62164;BME280;48149;51.132;7.178;2022-12-20T00:50:10;98687.91;;;19.08;64.89
62164;BME280;48149;51.132;7.178;2022-12-20T00:52:36;98683.13;;;19.15;67.29
62164;BME280;48149;51.132;7.178;2022-12-20T00:55:01;98681.28;;;18.81;66.54
62164;BME280;48149;51.132;7.178;2022-12-20T00:57:27;98695.59;;;17.97;69.23
62164;BME280;48149;51.132;7.178;2022-12-20T00:59:52;98688.78;;;18.22;71.30
62164;BME280;48149;51.132;7.178;2022-12-20T01:02:18;98689.72;;;17.85;77.63
62164;BME280;48149;51.132;7.178;2022-12-20T01:04:43;98704.50;;;18.33;73.77
62164;BME280;48149;51.132;7.178;2022-12-20T01:07:09;98715.22;;;18.74;70.79
62164;BME280;48149;51.132;7.178;2022-12-20T01:09:35;98716.16;;;17.75;71.68
62164;BME280;48149;51.132;7.178;2022-12-20T01:12:00;98729.78;;;18.56;72.13
62164;BME280;48149;51.132;7.178;2022-12-20T01:14:25;98726.50;;;18.34;70.77
62164;BME280;48149;51.132;7.178;2022-12-20T01:16:51;98710.03;;;18.32;73.77
62164;BME280;48149;51.132;7.178;2022-12-20T01:19:16;98726.16;;;18.15;71.97
62164;BME280;48149;51.132;7.178;2022-12-20T01:21:42;98728.22;;;18.80;71.73
62164;BME280;48149;51.132;7.178;2022-12-20T01:24:13;98721.03;;;18.66;72.89
62164;BME280;48149;51.132;7.178;2022-12-20T01:26:39;98719.59;;;17.71;76.69
62164;BME280;48149;51.132;7.178;2022-12-20T01:29:04;98722.25;;;18.33;71.71
62164;BME280;48149;51.132;7.178;2022-12-20T01:31:30;98722.41;;;17.27;77.54
62164;BME280;48149;51.132;7.178;2022-12-20T01:33:56;98714.97;;;18.75;71.22
62164;BME280;48149;51.132;7.178;2022-12-20T01:36:28;98714.16;;;19.55;67.69
62164;BME280;48149;51.132;7.178;2022-12-20T01:38:57;98709.31;;;17.42;75.43
62164;BME280;48149;51.132;7.178;2022-12-20T01:41:23;98716.84;;;18.02;77.64
62164;BME280;48149;51.132;7.178;2022-12-20T01:43:50;98700.75;;;17.30;80.09
62164;BME280;48149;51.132;7.178;2022-12-20T01:46:16;98706.97;;;17.46;77.46
62164;BME280;48149;51.132;7.178;2022-12-20T01:48:43;98715.56;;;17.63;78.16
62164;BME280;48149;51.132;7.178;2022-12-20T01:51:09;98702.59;;;18.29;75.68
62164;BME280;48149;51.132;7.178;2022-12-20T01:53:35;98690.75;;;17.37;77.44
62164;BME280;48149;51.132;7.178;2022-12-20T01:56:01;98687.84;;;16.70;82.12
62164;BME280;48149;51.132;7.178;2022-12-20T01:58:27;98679.34;;;16.95;81.39
62164;BME280;48149;51.132;7.178;2022-12-20T02:00:53;98679.28;;;17.64;78.46
62164;BME280;48149;51.132;7.178;2022-12-20T02:03:18;98681.28;;;17.10;81.89
62164;BME280;48149;51.132;7.178;2022-12-20T02:05:44;98676.69;;;16.63;85.60
62164;BME280;48149;51.132;7.178;2022-12-20T02:08:10;98691.97;;;16.88;82.13
62164;BME280;48149;51.132;7.178;2022-12-20T02:13:11;98693.41;;;17.05;79.25
62164;BME280;48149;51.132;7.178;2022-12-20T02:15:49;98682.63;;;17.49;77.72
62164;BME280;48149;51.132;7.178;2022-12-20T02:20:48;98688.81;;;17.23;81.01
62164;BME280;48149;51.132;7.178;2022-12-20T02:28:39;98662.16;;;17.81;78.32
62164;BME280;48149;51.132;7.178;2022-12-20T02:31:10;98651.88;;;17.01;83.04
62164;BME280;48149;51.132;7.178;2022-12-20T02:33:37;98656.78;;;17.24;85.38
62164;BME280;48149;51.132;7.178;2022-12-20T02:36:04;98650.47;;;17.67;80.91
62164;BME280;48149;51.132;7.178;2022-12-20T02:38:32;98653.25;;;17.50;78.73
62164;BME280;48149;51.132;7.178;2022-12-20T02:41:00;98654.81;;;17.98;77.53
62164;BME280;48149;51.132;7.178;2022-12-20T02:43:26;98655.94;;;17.14;82.98
62164;BME280;48149;51.132;7.178;2022-12-20T02:46:32;98658.03;;;18.05;78.52
62164;BME280;48149;51.132;7.178;2022-12-20T02:49:06;98640.91;;;18.48;75.22
62164;BME280;48149;51.132;7.178;2022-12-20T02:51:35;98639.41;;;17.80;76.01
62164;BME280;48149;51.132;7.178;2022-12-20T02:54:01;98643.28;;;18.40;75.65
62164;BME280;48149;51.132;7.178;2022-12-20T02:56:44;98629.47;;;18.28;75.72
62164;BME280;48149;51.132;7.178;2022-12-20T03:01:41;98639.63;;;18.71;76.07
62164;BME280;48149;51.132;7.178;2022-12-20T03:04:09;98641.38;;;18.15;75.45
62164;BME280;48149;51.132;7.178;2022-12-20T03:06:34;98640.91;;;17.61;76.14
62164;BME280;48149;51.132;7.178;2022-12-20T03:09:00;98640.16;;;18.88;72.54
62164;BME280;48149;51.132;7.178;2022-12-20T03:11:25;98644.78;;;19.77;66.50
62164;BME280;48149;51.132;7.178;2022-12-20T03:13:50;98641.69;;;18.39;73.03
62164;BME280;48149;51.132;7.178;2022-12-20T03:16:15;98641.81;;;17.87;74.64
62164;BME280;48149;51.132;7.178;2022-12-20T03:18:42;98651.28;;;18.85;71.86
62164;BME280;48149;51.132;7.178;2022-12-20T03:21:09;98645.97;;;18.60;69.77
62164;BME280;48149;51.132;7.178;2022-12-20T03:23:34;98650.63;;;18.12;75.80
62164;BME280;48149;51.132;7.178;2022-12-20T03:26:04;98654.78;;;17.93;74.44
62164;BME280;48149;51.132;7.178;2022-12-20T03:28:29;98643.03;;;17.22;79.91
62164;BME280;48149;51.132;7.178;2022-12-20T03:30:54;98639.00;;;18.24;77.26
62164;BME280;48149;51.132;7.178;2022-12-20T03:33:21;98651.66;;;18.01;77.91
62164;BME280;48149;51.132;7.178;2022-12-20T03:35:47;98652.47;;;18.02;76.13
62164;BME280;48149;51.132;7.178;2022-12-20T03:38:12;98656.44;;;17.99;78.17
62164;BME280;48149;51.132;7.178;2022-12-20T03:40:37;98661.47;;;18.06;76.67
62164;BME280;48149;51.132;7.178;2022-12-20T03:43:02;98661.63;;;17.79;78.03
62164;BME280;48149;51.132;7.178;2022-12-20T03:45:28;98665.31;;;18.50;75.59
62164;BME280;48149;51.132;7.178;2022-12-20T03:47:56;98651.91;;;18.00;75.80
62164;BME280;48149;51.132;7.178;2022-12-20T03:50:21;98651.25;;;19.31;72.15
62164;BME280;48149;51.132;7.178;2022-12-20T03:52:47;98641.44;;;17.68;78.10
62164;BME280;48149;51.132;7.178;2022-12-20T03:55:13;98640.94;;;18.63;77.62
62164;BME280;48149;51.132;7.178;2022-12-20T03:57:38;98648.88;;;19.04;71.75
62164;BME280;48149;51.132;7.178;2022-12-20T04:00:05;98644.34;;;18.49;73.22
62164;BME280;48149;51.132;7.178;2022-12-20T04:02:30;98640.81;;;18.13;79.73
62164;BME280;48149;51.132;7.178;2022-12-20T04:04:56;98646.19;;;18.43;76.41
62164;BME280;48149;51.132;7.178;2022-12-20T04:07:21;98656.06;;;18.53;75.98
62164;BME280;48149;51.132;7.178;2022-12-20T04:09:46;98644.84;;;18.31;77.27
62164;BME280;48149;51.132;7.178;2022-12-20T04:12:17;98661.47;;;17.54;82.34
62164;BME280;48149;51.132;7.178;2022-12-20T04:14:43;98662.94;;;18.54;77.28
62164;BME280;48149;51.132;7.178;2022-12-20T04:17:08;98656.06;;;18.83;74.99
62164;BME280;48149;51.132;7.178;2022-12-20T04:19:33;98660.31;;;18.94;74.88
62164;BME280;48149;51.132;7.178;2022-12-20T04:21:58;98666.06;;;17.64;82.25
62164;BME280;48149;51.132;7.178;2022-12-20T04:24:24;98666.59;;;17.66;81.39
62164;BME280;48149;51.132;7.178;2022-12-20T04:26:50;98650.19;;;18.46;79.62
62164;BME280;48149;51.132;7.178;2022-12-20T04:29:15;98651.72;;;17.59;81.08
62164;BME280;48149;51.132;7.178;2022-12-20T04:31:41;98659.13;;;18.20;79.51
62164;BME280;48149;51.132;7.178;2022-12-20T04:34:07;98655.97;;;18.28;79.43
62164;BME280;48149;51.132;7.178;2022-12-20T04:36:32;98652.03;;;18.40;78.95
62164;BME280;48149;51.132;7.178;2022-12-20T04:38:57;98637.94;;;17.16;86.18
62164;BME280;48149;51.132;7.178;2022-12-20T04:41:23;98636.69;;;16.86;88.21
62164;BME280;48149;51.132;7.178;2022-12-20T04:43:49;98634.59;;;17.72;82.38
62164;BME280;48149;51.132;7.178;2022-12-20T04:46:16;98640.84;;;18.18;80.36
62164;BME280;48149;51.132;7.178;2022-12-20T04:48:41;98643.19;;;18.09;81.70
62164;BME280;48149;51.132;7.178;2022-12-20T04:51:06;98644.22;;;17.46;83.40
62164;BME280;48149;51.132;7.178;2022-12-20T04:53:31;98650.47;;;17.72;84.20
62164;BME280;48149;51.132;7.178;2022-12-20T04:56:13;98651.09;;;17.94;82.71
62164;BME280;48149;51.132;7.178;2022-12-20T04:58:38;98644.22;;;17.46;85.16
62164;BME280;48149;51.132;7.178;2022-12-20T05:01:05;98642.16;;;17.53;84.91
62164;BME280;48149;51.132;7.178;2022-12-20T05:03:30;98628.81;;;17.85;81.18
62164;BME280;48149;51.132;7.178;2022-12-20T05:05:55;98627.72;;;17.71;82.58
62164;BME280;48149;51.132;7.178;2022-12-20T05:08:20;98619.44;;;17.63;80.86
62164;BME280;48149;51.132;7.178;2022-12-20T05:10:46;98619.38;;;18.15;80.78
62164;BME280;48149;51.132;7.178;2022-12-20T05:13:13;98605.97;;;17.69;82.82
62164;BME280;48149;51.132;7.178;2022-12-20T05:15:38;98614.03;;;17.42;86.10
62164;BME280;48149;51.132;7.178;2022-12-20T05:18:05;98599.31;;;16.46;85.74
62164;BME280;48149;51.132;7.178;2022-12-20T05:20:31;98609.34;;;17.54;84.86
62164;BME280;48149;51.132;7.178;2022-12-20T05:22:57;98613.84;;;18.41;80.11
62164;BME280;48149;51.132;7.178;2022-12-20T05:25:43;98612.28;;;18.40;80.08
62164;BME280;48149;51.132;7.178;2022-12-20T05:28:14;98598.72;;;18.32;79.07
62164;BME280;48149;51.132;7.178;2022-12-20T05:30:40;98589.75;;;18.83;76.53
62164;BME280;48149;51.132;7.178;2022-12-20T05:33:05;98592.09;;;17.47;78.97
62164;BME280;48149;51.132;7.178;2022-12-20T05:35:30;98583.91;;;17.01;84.67
62164;BME280;48149;51.132;7.178;2022-12-20T05:37:55;98574.38;;;17.52;82.60
62164;BME280;48149;51.132;7.178;2022-12-20T05:40:21;98580.78;;;17.10;85.53
62164;BME280;48149;51.132;7.178;2022-12-20T05:42:47;98575.31;;;16.79;85.12
62164;BME280;48149;51.132;7.178;2022-12-20T05:45:12;98582.25;;;17.37;81.82
62164;BME280;48149;51.132;7.178;2022-12-20T05:47:38;98586.44;;;17.23;86.66
62164;BME280;48149;51.132;7.178;2022-12-20T05:50:04;98571.91;;;17.31;85.44
62164;BME280;48149;51.132;7.178;2022-12-20T05:52:30;98573.13;;;17.55;81.48
62164;BME280;48149;51.132;7.178;2022-12-20T05:54:55;98566.41;;;18.35;79.07
62164;BME280;48149;51.132;7.178;2022-12-20T05:57:24;98563.66;;;16.80;87.25
62164;BME280;48149;51.132;7.178;2022-12-20T05:59:49;98563.22;;;18.33;80.50
62164;BME280;48149;51.132;7.178;2022-12-20T06:02:14;98567.66;;;17.92;81.76
62164;BME280;48149;51.132;7.178;2022-12-20T06:04:40;98572.69;;;17.31;83.10
62164;BME280;48149;51.132;7.178;2022-12-20T06:07:05;98563.44;;;18.01;80.75
62164;BME280;48149;51.132;7.178;2022-12-20T06:09:30;98572.53;;;17.53;82.22
62164;BME280;48149;51.132;7.178;2022-12-20T06:11:56;98575.00;;;17.70;82.20
62164;BME280;48149;51.132;7.178;2022-12-20T06:14:21;98557.16;;;17.45;81.80
62164;BME280;48149;51.132;7.178;2022-12-20T06:16:47;98562.09;;;17.26;86.80
62164;BME280;48149;51.132;7.178;2022-12-20T06:19:18;98558.19;;;17.44;83.06
62164;BME280;48149;51.132;7.178;2022-12-20T06:21:44;98550.97;;;17.91;80.02
62164;BME280;48149;51.132;7.178;2022-12-20T06:24:09;98544.06;;;17.80;81.19
62164;BME280;48149;51.132;7.178;2022-12-20T06:26:35;98555.00;;;18.14;78.06
62164;BME280;48149;51.132;7.178;2022-12-20T06:29:04;98552.63;;;18.33;76.71
62164;BME280;48149;51.132;7.178;2022-12-20T06:31:31;98556.63;;;17.48;83.80
62164;BME280;48149;51.132;7.178;2022-12-20T06:33:57;98550.50;;;18.85;75.20
62164;BME280;48149;51.132;7.178;2022-12-20T06:36:22;98550.13;;;17.76;78.62
62164;BME280;48149;51.132;7.178;2022-12-20T06:38:47;98550.16;;;17.91;79.32
62164;BME280;48149;51.132;7.178;2022-12-20T06:41:13;98554.53;;;17.50;78.55
62164;BME280;48149;51.132;7.178;2022-12-20T06:43:38;98547.03;;;16.16;89.49
62164;BME280;48149;51.132;7.178;2022-12-20T06:46:03;98545.47;;;18.23;78.12
62164;BME280;48149;51.132;7.178;2022-12-20T06:48:28;98538.59;;;16.88;83.63
62164;BME280;48149;51.132;7.178;2022-12-20T06:50:54;98540.41;;;17.96;78.83
62164;BME280;48149;51.132;7.178;2022-12-20T06:53:19;98542.00;;;18.48;75.03
62164;BME280;48149;51.132;7.178;2022-12-20T06:55:51;98539.19;;;17.00;83.43
62164;BME280;48149;51.132;7.178;2022-12-20T06:58:17;98533.16;;;17.67;81.40
62164;BME280;48149;51.132;7.178;2022-12-20T07:00:42;98536.19;;;18.26;75.65
62164;BME280;48149;51.132;7.178;2022-12-20T07:03:08;98527.44;;;18.10;78.38
62164;BME280;48149;51.132;7.178;2022-12-20T07:05:33;98534.25;;;17.71;82.51
62164;BME280;48149;51.132;7.178;2022-12-20T07:07:58;98540.41;;;18.32;76.55
62164;BME280;48149;51.132;7.178;2022-12-20T07:10:23;98528.78;;;18.28;79.20
62164;BME280;48149;51.132;7.178;2022-12-20T07:12:51;98520.91;;;16.93;82.89
62164;BME280;48149;51.132;7.178;2022-12-20T07:15:16;98514.13;;;17.75;80.69
62164;BME280;48149;51.132;7.178;2022-12-20T07:17:41;98517.31;;;17.82;79.92
62164;BME280;48149;51.132;7.178;2022-12-20T07:20:07;98504.56;;;17.69;78.67
62164;BME280;48149;51.132;7.178;2022-12-20T07:22:32;98525.03;;;18.79;73.05
62164;BME280;48149;51.132;7.178;2022-12-20T07:24:58;98524.75;;;17.90;79.29
62164;BME280;48149;51.132;7.178;2022-12-20T07:27:25;98524.53;;;18.67;76.03
62164;BME280;48149;51.132;7.178;2022-12-20T07:29:52;98517.06;;;17.88;79.12
62164;BME280;48149;51.132;7.178;2022-12-20T07:32:18;98515.25;;;18.39;78.09
62164;BME280;48149;51.132;7.178;2022-12-20T07:34:44;98506.75;;;17.87;77.96
62164;BME280;48149;51.132;7.178;2022-12-20T07:37:10;98505.97;;;17.96;78.29
62164;BME280;48149;51.132;7.178;2022-12-20T07:39:35;98512.56;;;17.94;77.46
62164;BME280;48149;51.132;7.178;2022-12-20T07:42:03;98500.94;;;18.15;77.42
62164;BME280;48149;51.132;7.178;2022-12-20T07:44:29;98499.34;;;18.19;76.65
62164;BME280;48149;51.132;7.178;2022-12-20T07:46:54;98503.84;;;17.98;80.01
62164;BME280;48149;51.132;7.178;2022-12-20T07:49:20;98511.81;;;18.39;75.65
62164;BME280;48149;51.132;7.178;2022-12-20T07:51:47;98510.75;;;18.04;74.76
62164;BME280;48149;51.132;7.178;2022-12-20T07:54:18;98507.72;;;17.55;77.88
62164;BME280;48149;51.132;7.178;2022-12-20T07:56:47;98510.97;;;18.03;78.64
62164;BME280;48149;51.132;7.178;2022-12-20T07:59:15;98507.63;;;17.40;81.46
62164;BME280;48149;51.132;7.178;2022-12-20T08:01:43;98510.19;;;17.82;79.45
62164;BME280;48149;51.132;7.178;2022-12-20T08:04:19;98502.78;;;18.45;77.98
62164;BME280;48149;51.132;7.178;2022-12-20T08:06:45;98501.72;;;17.95;77.72
62164;BME280;48149;51.132;7.178;2022-12-20T08:09:12;98495.09;;;18.63;75.82
62164;BME280;48149;51.132;7.178;2022-12-20T08:11:38;98510.00;;;19.39;70.39
62164;BME280;48149;51.132;7.178;2022-12-20T08:14:06;98507.19;;;19.15;69.68
62164;BME280;48149;51.132;7.178;2022-12-20T08:16:33;98502.78;;;18.45;73.73
62164;BME280;48149;51.132;7.178;2022-12-20T08:18:58;98504.13;;;18.42;73.48
62164;BME280;48149;51.132;7.178;2022-12-20T08:21:23;98506.94;;;19.11;70.69
62164;BME280;48149;51.132;7.178;2022-12-20T08:23:48;98506.13;;;19.11;71.68
62164;BME280;48149;51.132;7.178;2022-12-20T08:26:14;98509.75;;;19.94;67.99
62164;BME280;48149;51.132;7.178;2022-12-20T08:28:39;98505.31;;;19.26;69.24
62164;BME280;48149;51.132;7.178;2022-12-20T08:31:06;98504.13;;;19.57;69.60
62164;BME280;48149;51.132;7.178;2022-12-20T08:33:37;98513.56;;;19.19;72.03
62164;BME280;48149;51.132;7.178;2022-12-20T08:36:05;98506.97;;;19.01;70.04
62164;BME280;48149;51.132;7.178;2022-12-20T08:38:31;98513.03;;;19.76;66.37
62164;BME280;48149;51.132;7.178;2022-12-20T08:41:02;98498.44;;;19.04;71.70
62164;BME280;48149;51.132;7.178;2022-12-20T08:43:27;98490.41;;;19.35;67.89
62164;BME280;48149;51.132;7.178;2022-12-20T08:45:54;98484.63;;;19.17;71.76
62164;BME280;48149;51.132;7.178;2022-12-20T08:48:21;98490.69;;;19.28;68.84
62164;BME280;48149;51.132;7.178;2022-12-20T08:50:46;98480.25;;;17.92;74.44
62164;BME280;48149;51.132;7.178;2022-12-20T08:53:12;98493.22;;;18.79;71.06
62164;BME280;48149;51.132;7.178;2022-12-20T08:55:37;98497.50;;;18.55;73.82
62164;BME280;48149;51.132;7.178;2022-12-20T08:58:02;98489.00;;;18.73;73.34
62164;BME280;48149;51.132;7.178;2022-12-20T09:00:28;98493.72;;;19.60;68.57
62164;BME280;48149;51.132;7.178;2022-12-20T09:02:53;98503.69;;;19.19;67.82
62164;BME280;48149;51.132;7.178;2022-12-20T09:05:19;98495.81;;;18.94;70.02
62164;BME280;48149;51.132;7.178;2022-12-20T09:07:44;98496.69;;;17.89;72.63
62164;BME280;48149;51.132;7.178;2022-12-20T09:10:10;98494.28;;;18.83;71.67
62164;BME280;48149;51.132;7.178;2022-12-20T09:12:35;98492.41;;;18.94;70.81
62164;BME280;48149;51.132;7.178;2022-12-20T09:15:01;98497.50;;;18.15;76.83
62164;BME280;48149;51.132;7.178;2022-12-20T09:17:26;98492.47;;;18.08;75.59
62164;BME280;48149;51.132;7.178;2022-12-20T09:19:51;98495.41;;;18.52;74.36
62164;BME280;48149;51.132;7.178;2022-12-20T09:22:17;98493.91;;;17.48;79.52
62164;BME280;48149;51.132;7.178;2022-12-20T09:24:43;98485.53;;;17.77;74.44
62164;BME280;48149;51.132;7.178;2022-12-20T09:27:10;98491.38;;;18.59;75.44
62164;BME280;48149;51.132;7.178;2022-12-20T09:29:35;98493.19;;;18.99;68.48
62164;BME280;48149;51.132;7.178;2022-12-20T09:32:03;98500.13;;;19.54;68.52
62164;BME280;48149;51.132;7.178;2022-12-20T09:34:28;98510.78;;;18.50;72.54
62164;BME280;48149;51.132;7.178;2022-12-20T09:36:53;98499.06;;;18.81;72.10
62164;BME280;48149;51.132;7.178;2022-12-20T09:39:19;98510.97;;;18.94;74.11
62164;BME280;48149;51.132;7.178;2022-12-20T09:41:44;98503.59;;;18.40;76.70
62164;BME280;48149;51.132;7.178;2022-12-20T09:44:19;98494.28;;;17.77;78.75
62164;BME280;48149;51.132;7.178;2022-12-20T09:46:48;98509.91;;;18.85;74.86
62164;BME280;48149;51.132;7.178;2022-12-20T09:49:16;98492.22;;;18.25;77.93
62164;BME280;48149;51.132;7.178;2022-12-20T09:59:26;98495.00;;;19.04;75.18
62164;BME280;48149;51.132;7.178;2022-12-20T10:01:53;98491.53;;;19.18;75.60
62164;BME280;48149;51.132;7.178;2022-12-20T10:22:52;98472.84;;;18.59;79.13
62164;BME280;48149;51.132;7.178;2022-12-20T10:25:19;98459.88;;;18.28;82.88
62164;BME280;48149;51.132;7.178;2022-12-20T10:27:47;98455.53;;;18.92;77.20
62164;BME280;48149;51.132;7.178;2022-12-20T10:30:13;98460.59;;;18.84;76.53
62164;BME280;48149;51.132;7.178;2022-12-20T10:32:40;98461.91;;;18.86;74.20
62164;BME280;48149;51.132;7.178;2022-12-20T10:37:39;98444.22;;;18.36;77.74
62164;BME280;48149;51.132;7.178;2022-12-20T10:40:28;98449.78;;;19.29;74.53
62164;BME280;48149;51.132;7.178;2022-12-20T10:42:54;98446.81;;;18.77;75.19
62164;BME280;48149;51.132;7.178;2022-12-20T10:45:27;98429.81;;;19.47;73.89
62164;BME280;48149;51.132;7.178;2022-12-20T10:47:58;98422.19;;;19.79;70.86
62164;BME280;48149;51.132;7.178;2022-12-20T10:50:24;98424.31;;;19.77;67.87
62164;BME280;48149;51.132;7.178;2022-12-20T10:58:02;98408.84;;;19.50;71.19
62164;BME280;48149;51.132;7.178;2022-12-20T11:00:28;98407.31;;;19.78;72.23
62164;BME280;48149;51.132;7.178;2022-12-20T11:05:37;98405.78;;;19.67;71.43
62164;BME280;48149;51.132;7.178;2022-12-20T11:08:22;98411.22;;;19.86;72.09
62164;BME280;48149;51.132;7.178;2022-12-20T11:10:49;98402.06;;;19.68;71.59
62164;BME280;48149;51.132;7.178;2022-12-20T11:13:20;98391.59;;;18.89;76.45
62164;BME280;48149;51.132;7.178;2022-12-20T11:15:48;98388.88;;;18.04;76.87
62164;BME280;48149;51.132;7.178;2022-12-20T11:18:37;98391.00;;;17.82;83.21
62164;BME280;48149;51.132;7.178;2022-12-20T11:23:39;98376.91;;;18.32;81.01
62164;BME280;48149;51.132;7.178;2022-12-20T11:28:43;98370.53;;;19.12;74.57
62164;BME280;48149;51.132;7.178;2022-12-20T11:34:13;98375.84;;;19.90;69.33
62164;BME280;48149;51.132;7.178;2022-12-20T11:36:54;98377.25;;;20.11;68.32
62164;BME280;48149;51.132;7.178;2022-12-20T11:41:54;98376.38;;;19.14;72.18
62164;BME280;48149;51.132;7.178;2022-12-20T11:54:42;98355.19;;;19.09;72.33
62164;BME280;48149;51.132;7.178;2022-12-20T11:57:17;98353.22;;;19.25;73.50
62164;BME280;48149;51.132;7.178;2022-12-20T11:59:46;98351.38;;;18.67;73.42
62164;BME280;48149;51.132;7.178;2022-12-20T12:02:14;98351.88;;;18.79;74.91
62164;BME280;48149;51.132;7.178;2022-12-20T12:04:49;98353.28;;;19.15;71.49
62164;BME280;48149;51.132;7.178;2022-12-20T12:07:20;98354.56;;;19.66;70.94
62164;BME280;48149;51.132;7.178;2022-12-20T12:09:50;98351.97;;;20.14;67.81
62164;BME280;48149;51.132;7.178;2022-12-20T12:12:37;98352.50;;;20.16;67.26
62164;BME280;48149;51.132;7.178;2022-12-20T12:23:15;98355.28;;;19.33;71.52
62164;BME280;48149;51.132;7.178;2022-12-20T12:25:42;98351.88;;;19.95;68.13
62164;BME280;48149;51.132;7.178;2022-12-20T12:28:09;98346.63;;;20.48;64.66
62164;BME280;48149;51.132;7.178;2022-12-20T12:30:36;98345.97;;;19.41;69.45
62164;BME280;48149;51.132;7.178;2022-12-20T12:33:05;98348.16;;;20.25;65.71
62164;BME280;48149;51.132;7.178;2022-12-20T12:35:51;98341.75;;;18.86;69.67
62164;BME280;48149;51.132;7.178;2022-12-20T12:46:21;98349.47;;;18.82;77.81
62164;BME280;48149;51.132;7.178;2022-12-20T12:51:25;98352.03;;;18.97;79.37
62164;BME280;48149;51.132;7.178;2022-12-20T12:53:53;98350.06;;;18.64;80.91
62164;BME280;48149;51.132;7.178;2022-12-20T13:09:46;98327.91;;;18.99;83.58
62164;BME280;48149;51.132;7.178;2022-12-20T13:12:45;98323.97;;;19.30;80.77
62164;BME280;48149;51.132;7.178;2022-12-20T13:17:55;98338.06;;;19.69;79.80
62164;BME280;48149;51.132;7.178;2022-12-20T13:25:29;98326.03;;;19.77;79.44
62164;BME280;48149;51.132;7.178;2022-12-20T13:28:07;98328.44;;;20.02;77.46
62164;BME280;48149;51.132;7.178;2022-12-20T13:30:43;98309.72;;;19.60;78.46
62164;BME280;48149;51.132;7.178;2022-12-20T13:33:16;98323.84;;;19.11;81.32
62164;BME280;48149;51.132;7.178;2022-12-20T13:35:46;98323.38;;;19.43;82.00
62164;BME280;48149;51.132;7.178;2022-12-20T13:40:38;98319.19;;;19.71;80.24
62164;BME280;48149;51.132;7.178;2022-12-20T13:43:27;98313.38;;;19.30;79.24
62164;BME280;48149;51.132;7.178;2022-12-20T13:45:53;98318.06;;;19.77;77.82
62164;BME280;48149;51.132;7.178;2022-12-20T13:49:06;98319.81;;;19.19;82.67
62164;BME280;48149;51.132;7.178;2022-12-20T13:51:06;98311.22;;;19.71;80.13
62164;BME280;48149;51.132;7.178;2022-12-20T13:53:33;98314.09;;;20.03;76.81
62164;BME280;48149;51.132;7.178;2022-12-20T13:55:59;98314.72;;;19.23;80.01
62164;BME280;48149;51.132;7.178;2022-12-20T13:58:43;98315.66;;;19.47;79.13
62164;BME280;48149;51.132;7.178;2022-12-20T14:01:13;98308.84;;;19.31;81.22
62164;BME280;48149;51.132;7.178;2022-12-20T14:03:45;98313.81;;;18.39;86.06
62164;BME280;48149;51.132;7.178;2022-12-20T14:06:12;98312.06;;;18.84;84.54
62164;BME280;48149;51.132;7.178;2022-12-20T14:08:40;98318.50;;;19.55;79.02
62164;BME280;48149;51.132;7.178;2022-12-20T14:14:10;98322.22;;;19.88;76.49
62164;BME280;48149;51.132;7.178;2022-12-20T14:16:30;98310.22;;;19.28;76.42
62164;BME280;48149;51.132;7.178;2022-12-20T14:21:23;98302.63;;;19.50;78.66
62164;BME280;48149;51.132;7.178;2022-12-20T14:23:49;98315.13;;;19.79;78.58
62164;BME280;48149;51.132;7.178;2022-12-20T14:26:32;98308.41;;;19.86;76.42
62164;BME280;48149;51.132;7.178;2022-12-20T14:29:00;98310.72;;;19.64;78.73
62164;BME280;48149;51.132;7.178;2022-12-20T14:31:34;98317.22;;;19.82;77.73
62164;BME280;48149;51.132;7.178;2022-12-20T14:36:42;98310.47;;;18.88;80.96
62164;BME280;48149;51.132;7.178;2022-12-20T14:41:57;98306.69;;;18.99;81.32
62164;BME280;48149;51.132;7.178;2022-12-20T14:44:23;98308.94;;;19.54;78.81
62164;BME280;48149;51.132;7.178;2022-12-20T14:46:52;98305.66;;;19.96;76.23
62164;BME280;48149;51.132;7.178;2022-12-20T14:51:47;98287.38;;;19.27;80.55
62164;BME280;48149;51.132;7.178;2022-12-20T14:54:16;98288.06;;;19.04;79.48
62164;BME280;48149;51.132;7.178;2022-12-20T14:56:46;98285.53;;;19.61;78.78
62164;BME280;48149;51.132;7.178;2022-12-20T14:59:17;98273.22;;;19.99;76.53
62164;BME280;48149;51.132;7.178;2022-12-20T15:01:49;98273.28;;;19.94;76.63
62164;BME280;48149;51.132;7.178;2022-12-20T15:07:30;98281.16;;;19.47;79.81
62164;BME280;48149;51.132;7.178;2022-12-20T15:09:56;98285.03;;;19.59;76.35
62164;BME280;48149;51.132;7.178;2022-12-20T15:12:22;98270.09;;;19.30;79.34
62164;BME280;48149;51.132;7.178;2022-12-20T15:14:50;98267.19;;;19.65;79.52